Terminal Aerodrome Forecast
Issued by NWS

Current Version | Previous Version | Text Only | Print | Product List | Glossary On
Versions: 1 2 3 4 5 6 7 8 9 10 11 12 13 14 15 16 17 18 19 20 21
192
FTUS41 KOKX 091732
TAFSWF
TAF
KSWF 091732Z 0918/1024 VRB04KT P6SM SCT040 SCT070
     FM092200 VRB04KT P6SM OVC015
     FM100300 VRB03KT 1SM -SN BR BKN006 OVC012
      TEMPO 1008/1012 1/2SM SN OVC005
     FM101300 27005KT P6SM SCT010 BKN025
     FM101700 27011G19KT P6SM BKN040
      AMD NOT SKED=

USA.gov is the U.S. government's official web portal to all federal, state and local government web resources and services.